createdAt,value
2018-03-17T00:00:25.064Z,158541.25
2018-03-17T00:02:52.750Z,158560.72
2018-03-17T00:05:20.388Z,158521.17
2018-03-17T00:07:47.955Z,158523.11
2018-03-17T00:10:15.681Z,158530.91
2018-03-17T00:12:43.361Z,158523.11
2018-03-17T00:15:11.019Z,158503.00
2018-03-17T00:17:38.707Z,158483.56
2018-03-17T00:20:06.281Z,158480.30
2018-03-17T00:22:33.860Z,158475.78
2018-03-17T00:25:01.519Z,158485.50
2018-03-17T00:27:29.312Z,158458.94
2018-03-17T00:29:56.953Z,158444.62
2018-03-17T00:32:24.511Z,158450.50
2018-03-17T00:34:52.234Z,158423.28
2018-03-17T00:37:20.082Z,158427.80
2018-03-17T00:39:47.657Z,158411.59
2018-03-17T00:42:15.346Z,158394.06
2018-03-17T00:44:43.019Z,158397.30
2018-03-17T00:47:10.592Z,158395.36
2018-03-17T00:49:38.271Z,158399.28
2018-03-17T00:52:05.956Z,158410.95
2018-03-17T00:54:33.738Z,158398.64
2018-03-17T00:57:01.397Z,158423.28
2018-03-17T00:59:29.036Z,158410.95
2018-03-17T01:01:56.661Z,158399.28
2018-03-17T01:04:24.439Z,158377.23
2018-03-17T01:06:52.068Z,158358.41
2018-03-17T01:09:19.641Z,158357.77
2018-03-17T01:11:47.246Z,158340.94
2018-03-17T01:14:14.884Z,158341.59
2018-03-17T01:16:42.456Z,158335.08
2018-03-17T01:19:10.082Z,158335.72
2018-03-17T01:21:37.653Z,158321.48
2018-03-17T01:24:05.329Z,158321.48
2018-03-17T01:26:33.003Z,158320.84
2018-03-17T01:29:00.740Z,158309.81
2018-03-17T01:31:28.561Z,158312.39
2018-03-17T01:33:56.344Z,158313.73
2018-03-17T01:36:24.015Z,158323.41
2018-03-17T01:38:51.580Z,158316.95
2018-03-17T01:41:19.158Z,158326.05
2018-03-17T01:43:46.783Z,158326.69
2018-03-17T01:46:14.389Z,158326.05
2018-03-17T01:48:41.975Z,158317.59
2018-03-17T01:51:09.642Z,158300.72
2018-03-17T01:53:37.207Z,158305.30
2018-03-17T01:56:05.004Z,158300.08
2018-03-17T01:58:32.672Z,158288.41
2018-03-17T02:01:00.564Z,158287.13
2018-03-17T02:03:28.128Z,158297.50
2018-03-17T02:05:55.912Z,158281.97
2018-03-17T02:08:23.649Z,158280.66
2018-03-17T02:10:51.360Z,158268.36
2018-03-17T02:13:18.955Z,158259.28
2018-03-17T02:15:46.608Z,158274.17
2018-03-17T02:18:14.390Z,158261.20
2018-03-17T02:20:41.987Z,158270.94
2018-03-17T02:23:09.555Z,158258.63
2018-03-17T02:25:37.150Z,158273.53
2018-03-17T02:28:04.771Z,158271.58
2018-03-17T02:30:32.452Z,158263.78
2018-03-17T02:33:00.032Z,158257.98
2018-03-17T02:35:27.804Z,158257.34
2018-03-17T02:37:55.591Z,158259.92
2018-03-17T02:40:23.314Z,158263.14
2018-03-17T02:42:50.957Z,158277.44
2018-03-17T02:45:18.551Z,158263.78
2018-03-17T02:47:46.175Z,158256.69
2018-03-17T02:50:13.774Z,158258.63
2018-03-17T02:52:41.539Z,158263.14
2018-03-17T02:55:09.388Z,158246.31
2018-03-17T02:57:37.204Z,158233.36
2018-03-17T03:00:04.837Z,158225.56
2018-03-17T03:02:32.540Z,158235.94
2018-03-17T03:05:00.110Z,158221.05
2018-03-17T03:07:27.767Z,158221.05
2018-03-17T03:09:55.394Z,158214.55
2018-03-17T03:12:23.102Z,158219.13
2018-03-17T03:14:50.712Z,158200.95
2018-03-17T03:17:18.335Z,158198.37
2018-03-17T03:19:46.064Z,158198.37
2018-03-17T03:22:13.719Z,158184.77
2018-03-17T03:24:41.311Z,158189.94
2018-03-17T03:27:08.989Z,158175.05
2018-03-17T03:29:36.764Z,158192.56
2018-03-17T03:32:04.436Z,158188.64
2018-03-17T03:34:32.220Z,158189.28
2018-03-17T03:36:59.865Z,158188.00
2018-03-17T03:39:27.571Z,158190.58
2018-03-17T03:41:55.166Z,158201.59
2018-03-17T03:44:22.924Z,158195.80
2018-03-17T03:46:50.648Z,158176.98
2018-03-17T03:49:18.307Z,158175.05
2018-03-17T03:51:46.033Z,158167.91
2018-03-17T03:54:13.834Z,158162.09
2018-03-17T03:56:41.495Z,158167.25
2018-03-17T03:59:09.183Z,158156.94
2018-03-17T04:01:36.955Z,158176.34
2018-03-17T04:04:04.839Z,158150.44
2018-03-17T04:06:32.399Z,158150.44
2018-03-17T04:09:00.188Z,158147.20
2018-03-17T04:11:27.949Z,158154.94
2018-03-17T04:13:55.743Z,158146.56
2018-03-17T04:16:23.418Z,158140.70
2018-03-17T04:18:51.022Z,158153.02
2018-03-17T04:21:18.764Z,158154.30
2018-03-17T04:23:46.430Z,158164.67
2018-03-17T04:26:14.149Z,158164.67
2018-03-17T04:28:41.902Z,158138.78
2018-03-17T04:31:09.671Z,158136.84
2018-03-17T04:33:37.340Z,158124.53
2018-03-17T04:36:05.029Z,158100.56
2018-03-17T04:38:32.627Z,158112.88
2018-03-17T04:41:00.202Z,158095.36
2018-03-17T04:43:27.942Z,158085.03
2018-03-17T04:45:55.513Z,158092.12
2018-03-17T04:48:23.188Z,158082.41
2018-03-17T04:50:50.806Z,158064.94
2018-03-17T04:53:18.546Z,158061.72
2018-03-17T04:55:46.215Z,158065.59
2018-03-17T04:58:13.892Z,158039.69
2018-03-17T05:00:41.567Z,158040.34
2018-03-17T05:03:09.192Z,158035.13
2018-03-17T05:05:36.760Z,158042.28
2018-03-17T05:08:04.499Z,158011.17
2018-03-17T05:10:32.157Z,158018.31
2018-03-17T05:12:59.949Z,158016.38
2018-03-17T05:15:27.613Z,157979.48
2018-03-17T05:17:55.404Z,157995.00
2018-03-17T05:20:23.073Z,158013.16
2018-03-17T05:22:50.753Z,158013.80
2018-03-17T05:25:18.315Z,158003.44
2018-03-17T05:27:46.000Z,157969.11
2018-03-17T05:30:13.661Z,157971.05
2018-03-17T05:32:41.227Z,157971.69
2018-03-17T05:35:08.855Z,157953.59
2018-03-17T05:37:36.472Z,157954.87
2018-03-17T05:40:04.156Z,157947.09
2018-03-17T05:42:31.940Z,157947.09
2018-03-17T05:44:59.603Z,157943.88
2018-03-17T05:47:27.304Z,157930.92
2018-03-17T05:49:54.978Z,157941.28
2018-03-17T05:52:22.704Z,157934.16
2018-03-17T05:54:50.434Z,157934.16
2018-03-17T05:57:18.027Z,157938.02
2018-03-17T05:59:45.727Z,157934.16
2018-03-17T06:02:13.323Z,157927.70
2018-03-17T06:04:40.974Z,157925.08
2018-03-17T06:07:08.590Z,157915.41
2018-03-17T06:09:36.191Z,157939.31
2018-03-17T06:12:03.823Z,157929.00
2018-03-17T06:14:31.387Z,157930.92
2018-03-17T06:16:59.102Z,157914.06
2018-03-17T06:19:26.979Z,157926.36
2018-03-17T06:21:54.698Z,157923.78
2018-03-17T06:24:22.275Z,157921.20
2018-03-17T06:26:50.009Z,157936.09
2018-03-17T06:29:17.584Z,157950.31
2018-03-17T06:31:45.242Z,157929.64
2018-03-17T06:34:13.036Z,157925.08
2018-03-17T06:36:40.606Z,157936.73
2018-03-17T06:39:08.187Z,157915.41
2018-03-17T06:41:36.055Z,157938.66
2018-03-17T06:44:03.628Z,157925.72
2018-03-17T06:46:31.206Z,157932.86
2018-03-17T06:48:58.976Z,157930.92
2018-03-17T06:51:26.539Z,157949.67
2018-03-17T06:53:54.230Z,157971.69
2018-03-17T06:56:21.996Z,157987.22
2018-03-17T06:58:49.878Z,157980.12
2018-03-17T07:01:17.668Z,158018.31
2018-03-17T07:03:45.316Z,158008.59
2018-03-17T07:06:12.891Z,158019.61
2018-03-17T07:08:40.451Z,158002.78
2018-03-17T07:11:08.067Z,158031.91
2018-03-17T07:13:35.632Z,158017.03
2018-03-17T07:16:03.283Z,158004.72
2018-03-17T07:18:30.980Z,157976.25
2018-03-17T07:20:58.662Z,158000.86
2018-03-17T07:23:26.279Z,158005.37
2018-03-17T07:25:54.932Z,157985.92
2018-03-17T07:28:22.715Z,157981.41
2018-03-17T07:30:50.330Z,157993.06
2018-03-17T07:33:17.905Z,157989.20
2018-03-17T07:35:45.522Z,157989.20
2018-03-17T07:38:13.317Z,158044.84
2018-03-17T07:40:41.200Z,157984.64
2018-03-17T07:43:08.790Z,158010.53
2018-03-17T07:45:36.438Z,157987.22
2018-03-17T07:48:04.107Z,158014.44
2018-03-17T07:50:31.791Z,158025.47
2018-03-17T07:52:59.571Z,158029.33
2018-03-17T07:55:27.176Z,158001.50
2018-03-17T07:57:54.735Z,158046.78
2018-03-17T08:00:22.391Z,158000.22
2018-03-17T08:02:50.049Z,157948.39
2018-03-17T08:05:17.847Z,157972.34
2018-03-17T08:07:45.449Z,157929.00
2018-03-17T08:10:13.007Z,157978.19
2018-03-17T08:12:40.727Z,158000.86
2018-03-17T08:15:08.374Z,157999.52
2018-03-17T08:17:36.124Z,158010.53
2018-03-17T08:20:04.002Z,157955.53
2018-03-17T08:22:31.777Z,157932.86
2018-03-17T08:24:59.345Z,157936.09
2018-03-17T08:27:27.186Z,157952.30
2018-03-17T08:29:54.789Z,157947.09
2018-03-17T08:32:22.478Z,157987.22
2018-03-17T08:34:50.202Z,158044.20
2018-03-17T08:37:17.795Z,158101.86
2018-03-17T08:39:45.493Z,158066.23
2018-03-17T08:42:13.284Z,157986.56
2018-03-17T08:44:40.852Z,157967.19
2018-03-17T08:47:08.518Z,157997.58
2018-03-17T08:49:36.309Z,157977.55
2018-03-17T08:52:03.983Z,157932.22
2018-03-17T08:54:31.596Z,157951.66
2018-03-17T08:56:59.223Z,157943.22
2018-03-17T08:59:27.063Z,157912.12
2018-03-17T09:01:54.698Z,157980.12
2018-03-17T09:04:22.376Z,158015.09
2018-03-17T09:06:50.039Z,158002.14
2018-03-17T09:09:17.605Z,158022.19
2018-03-17T09:11:45.275Z,158007.95
2018-03-17T09:14:12.839Z,158114.81
2018-03-17T09:16:40.406Z,158143.28
2018-03-17T09:19:08.106Z,158180.91
2018-03-17T09:21:35.701Z,158131.63
2018-03-17T09:24:03.287Z,158125.81
2018-03-17T09:26:30.911Z,158156.94
2018-03-17T09:28:58.511Z,158168.59
2018-03-17T09:31:26.124Z,158107.02
2018-03-17T09:33:53.853Z,158142.64
2018-03-17T09:36:21.499Z,158101.86
2018-03-17T09:38:49.307Z,158136.84
2018-03-17T09:41:16.970Z,158116.73
2018-03-17T09:43:44.650Z,158108.36
2018-03-17T09:46:12.334Z,158146.56
2018-03-17T09:48:40.160Z,158226.22
2018-03-17T09:51:07.779Z,158307.88
2018-03-17T09:53:35.420Z,158215.84
2018-03-17T09:56:03.243Z,158219.13
2018-03-17T09:58:30.827Z,158261.20
2018-03-17T10:00:58.545Z,158213.25
2018-03-17T10:03:26.361Z,158237.88
2018-03-17T10:05:54.045Z,158219.77
2018-03-17T10:08:21.617Z,158210.03
2018-03-17T10:10:49.399Z,158254.11
2018-03-17T10:13:17.079Z,158232.72
2018-03-17T10:15:44.640Z,158330.56
2018-03-17T10:18:12.266Z,158399.28
2018-03-17T10:20:39.886Z,158366.22
2018-03-17T10:23:07.673Z,158346.09
2018-03-17T10:25:36.456Z,158340.30
2018-03-17T10:28:04.147Z,158387.63
2018-03-17T10:30:31.761Z,158325.41
2018-03-17T10:32:59.600Z,158327.33
2018-03-17T10:35:27.183Z,158295.56
2018-03-17T10:37:54.851Z,158296.84
2018-03-17T10:40:22.524Z,158254.75
2018-03-17T10:42:50.156Z,158311.75
2018-03-17T10:45:17.866Z,158361.00
2018-03-17T10:47:45.491Z,158368.16
2018-03-17T10:50:13.214Z,158412.91
2018-03-17T10:52:40.824Z,158394.06
2018-03-17T10:55:08.578Z,158448.55
2018-03-17T10:57:36.253Z,158503.64
2018-03-17T11:00:03.884Z,158501.06
2018-03-17T11:02:32.629Z,158460.87
2018-03-17T11:05:00.350Z,158460.22
2018-03-17T11:07:28.939Z,158467.33
2018-03-17T11:09:56.681Z,158441.41
2018-03-17T11:12:24.562Z,158509.50
2018-03-17T11:14:52.219Z,158510.80
2018-03-17T11:17:20.217Z,158455.02
2018-03-17T11:19:47.792Z,158475.12
2018-03-17T11:22:15.363Z,158614.53
2018-03-17T11:24:43.131Z,158596.41
2018-03-17T11:27:10.908Z,158599.63
2018-03-17T11:29:38.466Z,158568.53
2018-03-17T11:32:06.147Z,158623.63
2018-03-17T11:34:33.840Z,158665.83
2018-03-17T11:37:01.511Z,158633.38
2018-03-17T11:39:29.098Z,158501.70
2018-03-17T11:41:56.784Z,158600.28
2018-03-17T11:44:24.526Z,158565.89
2018-03-17T11:46:52.143Z,158573.05
2018-03-17T11:49:19.894Z,158527.00
2018-03-17T11:51:47.678Z,158556.20
2018-03-17T11:54:15.267Z,158602.22
2018-03-17T11:56:43.127Z,158653.50
2018-03-17T11:59:10.695Z,158657.38
2018-03-17T12:01:38.308Z,158653.50
2018-03-17T12:04:05.912Z,158604.20
2018-03-17T12:06:33.728Z,158662.55
2018-03-17T12:09:01.386Z,158582.14
2018-03-17T12:11:29.179Z,158584.72
2018-03-17T12:13:56.861Z,158636.59
2018-03-17T12:16:24.468Z,158644.41
2018-03-17T12:18:52.309Z,158642.47
2018-03-17T12:21:20.042Z,158659.31
2018-03-17T12:23:47.635Z,158743.67
2018-03-17T12:26:15.255Z,158763.16
2018-03-17T12:28:42.814Z,158802.09
2018-03-17T12:31:10.674Z,158848.83
2018-03-17T12:33:38.263Z,158735.22
2018-03-17T12:36:05.935Z,158705.39
2018-03-17T12:38:33.588Z,158671.64
2018-03-17T12:41:01.278Z,158728.75
2018-03-17T12:43:28.947Z,158700.22
2018-03-17T12:45:56.721Z,158756.00
2018-03-17T12:48:24.472Z,158730.05
2018-03-17T12:50:52.052Z,158700.86
2018-03-17T12:53:19.728Z,158633.38
2018-03-17T12:55:47.327Z,158692.41
2018-03-17T12:58:15.044Z,158712.55
2018-03-17T13:00:46.159Z,158652.20
2018-03-17T13:03:13.724Z,158696.30
2018-03-17T13:05:41.367Z,158727.45
2018-03-17T13:08:09.093Z,158758.58
2018-03-17T13:10:36.676Z,158701.52
2018-03-17T13:13:04.547Z,158700.86
2018-03-17T13:15:32.210Z,158707.97
2018-03-17T13:17:59.783Z,158747.55
2018-03-17T13:20:27.457Z,158774.19
2018-03-17T13:23:06.989Z,158765.75
2018-03-17T13:25:34.632Z,158660.61
2018-03-17T13:28:14.007Z,158626.86
2018-03-17T13:30:41.831Z,158605.50
2018-03-17T13:33:09.436Z,158588.59
2018-03-17T13:35:48.935Z,158576.92
2018-03-17T13:38:16.588Z,158617.81
2018-03-17T13:40:44.202Z,158648.92
2018-03-17T13:43:11.871Z,158611.95
2018-03-17T13:45:39.558Z,158643.75
2018-03-17T13:48:07.350Z,158647.62
2018-03-17T13:50:35.005Z,158624.92
2018-03-17T13:53:02.784Z,158680.09
2018-03-17T13:55:30.566Z,158683.97
2018-03-17T13:57:58.227Z,158789.75
2018-03-17T14:00:25.874Z,158709.91
2018-03-17T14:02:53.448Z,158670.34
2018-03-17T14:05:21.171Z,158646.34
2018-03-17T14:07:48.987Z,158622.34
2018-03-17T14:10:16.715Z,158556.84
2018-03-17T14:12:44.289Z,158586.02
2018-03-17T14:15:11.962Z,158599.63
2018-03-17T14:17:39.559Z,158645.69
2018-03-17T14:20:07.311Z,158698.23
2018-03-17T14:22:34.931Z,158721.59
2018-03-17T14:25:02.518Z,158654.78
2018-03-17T14:27:30.102Z,158624.28
2018-03-17T14:29:57.702Z,158626.86
2018-03-17T14:32:25.494Z,158682.67
2018-03-17T14:34:53.169Z,158669.70
2018-03-17T14:37:20.946Z,158704.09
2018-03-17T14:39:48.720Z,158731.98
2018-03-17T14:42:16.340Z,158726.81
2018-03-17T14:44:43.968Z,158778.06
2018-03-17T14:47:11.748Z,158770.27
2018-03-17T14:49:39.413Z,158814.41
2018-03-17T14:52:07.006Z,158806.61
2018-03-17T14:54:34.771Z,158831.92
2018-03-17T14:57:02.493Z,158870.27
2018-03-17T14:59:30.214Z,158805.31
2018-03-17T15:01:59.027Z,158766.39
2018-03-17T15:04:26.805Z,158745.61
2018-03-17T15:06:54.689Z,158757.28
2018-03-17T15:09:23.193Z,158783.25
2018-03-17T15:11:51.210Z,158744.95
2018-03-17T15:14:19.145Z,158691.13
2018-03-17T15:16:47.028Z,158706.03
2018-03-17T15:19:14.908Z,158688.53
2018-03-17T15:21:43.712Z,158656.08
2018-03-17T15:24:12.838Z,158608.72
2018-03-17T15:26:40.701Z,158592.53
2018-03-17T15:29:09.202Z,158595.75
2018-03-17T15:31:37.076Z,158584.08
2018-03-17T15:34:04.883Z,158595.11
2018-03-17T15:36:32.730Z,158587.31
2018-03-17T15:39:00.817Z,158587.95
2018-03-17T15:41:28.592Z,158587.95
2018-03-17T15:43:57.122Z,158600.92
2018-03-17T15:46:24.880Z,158601.56
2018-03-17T15:48:52.759Z,158613.89
2018-03-17T15:51:20.631Z,158589.25
2018-03-17T15:53:48.716Z,158563.95
2018-03-17T15:56:16.481Z,158579.56
2018-03-17T15:58:44.126Z,158560.08
2018-03-17T16:01:12.556Z,158567.23
2018-03-17T16:03:40.402Z,158572.41
2018-03-17T16:06:08.843Z,158584.72
2018-03-17T16:08:37.355Z,158576.28
2018-03-17T16:11:05.026Z,158582.78
2018-03-17T16:13:33.597Z,158582.78
2018-03-17T16:16:01.409Z,158573.69
2018-03-17T16:18:29.225Z,158563.95
2018-03-17T16:20:57.546Z,158580.20
2018-03-17T16:23:25.430Z,158576.28
2018-03-17T16:25:53.280Z,158571.11
2018-03-17T16:28:21.092Z,158586.66
2018-03-17T16:30:49.073Z,158565.25
2018-03-17T16:33:16.849Z,158578.91
2018-03-17T16:35:44.485Z,158569.17
2018-03-17T16:38:12.067Z,158588.59
2018-03-17T16:40:39.769Z,158584.72
2018-03-17T16:43:07.655Z,158574.34
2018-03-17T16:45:35.323Z,158571.11
2018-03-17T16:48:02.931Z,158593.81
2018-03-17T16:50:30.667Z,158577.56
2018-03-17T16:52:58.240Z,158556.84
2018-03-17T16:55:25.910Z,158568.53
2018-03-17T16:57:53.591Z,158573.05
2018-03-17T17:00:21.261Z,158575.63
2018-03-17T17:02:48.915Z,158580.84
2018-03-17T17:05:16.613Z,158566.53
2018-03-17T17:07:44.198Z,158566.53
2018-03-17T17:10:11.982Z,158563.95
2018-03-17T17:12:39.757Z,158557.50
2018-03-17T17:15:07.427Z,158566.53
2018-03-17T17:17:35.103Z,158552.92
2018-03-17T17:20:02.666Z,158544.53
2018-03-17T17:22:30.462Z,158552.92
2018-03-17T17:24:58.134Z,158549.05
2018-03-17T17:27:25.811Z,158547.11
2018-03-17T17:29:53.438Z,158532.86
2018-03-17T17:32:21.051Z,158531.56
2018-03-17T17:34:48.842Z,158543.88
2018-03-17T17:37:16.478Z,158549.69
2018-03-17T17:39:44.286Z,158534.78
2018-03-17T17:42:11.894Z,158534.78
2018-03-17T17:44:39.741Z,158539.95
2018-03-17T17:47:07.319Z,158529.58
2018-03-17T17:49:34.987Z,158543.23
2018-03-17T17:52:02.631Z,158543.88
2018-03-17T17:54:30.238Z,158522.47
2018-03-17T17:56:57.818Z,158528.92
2018-03-17T17:59:25.450Z,158525.70
2018-03-17T18:01:53.048Z,158511.44
2018-03-17T18:04:20.716Z,158515.31
2018-03-17T18:06:48.330Z,158495.25
2018-03-17T18:09:16.074Z,158505.58
2018-03-17T18:11:43.865Z,158502.34
2018-03-17T18:14:11.617Z,158504.94
2018-03-17T18:16:39.422Z,158495.89
2018-03-17T18:19:07.186Z,158495.89
2018-03-17T18:21:34.912Z,158482.92
2018-03-17T18:24:02.598Z,158476.42
2018-03-17T18:26:30.424Z,158486.16
2018-03-17T18:28:58.028Z,158473.19
2018-03-17T18:31:25.668Z,158478.34
2018-03-17T18:33:53.326Z,158469.27
2018-03-17T18:36:20.903Z,158479.00
2018-03-17T18:38:48.592Z,158466.03
2018-03-17T18:41:16.262Z,158464.09
2018-03-17T18:43:43.823Z,158479.00
2018-03-17T18:46:11.451Z,158471.25
2018-03-17T18:48:39.201Z,158475.12
2018-03-17T18:51:06.892Z,158471.25
2018-03-17T18:53:34.542Z,158471.91
2018-03-17T18:56:02.135Z,158456.30
2018-03-17T18:58:29.905Z,158458.94
2018-03-17T19:00:57.574Z,158453.72
2018-03-17T19:03:25.355Z,158447.91
2018-03-17T19:05:52.962Z,158453.72
2018-03-17T19:08:20.710Z,158451.14
2018-03-17T19:10:48.309Z,158432.31
2018-03-17T19:13:15.930Z,158436.23
2018-03-17T19:15:43.592Z,158425.22
2018-03-17T19:18:11.139Z,158437.53
2018-03-17T19:20:38.905Z,158428.44
2018-03-17T19:23:06.722Z,158429.08
2018-03-17T19:25:34.286Z,158434.94
2018-03-17T19:28:02.111Z,158416.13
2018-03-17T19:30:29.888Z,158419.34
2018-03-17T19:32:57.483Z,158416.13
2018-03-17T19:35:25.227Z,158416.13
2018-03-17T19:37:52.897Z,158418.06
2018-03-17T19:40:20.480Z,158415.47
2018-03-17T19:42:48.080Z,158422.63
2018-03-17T19:45:15.849Z,158416.77
2018-03-17T19:47:43.512Z,158399.94
2018-03-17T19:50:11.175Z,158410.95
2018-03-17T19:52:38.855Z,158392.78
2018-03-17T19:55:06.431Z,158402.52
2018-03-17T19:57:34.031Z,158384.98
2018-03-17T20:00:01.741Z,158388.91
2018-03-17T20:02:29.391Z,158379.81
2018-03-17T20:04:57.013Z,158366.22
2018-03-17T20:07:24.636Z,158379.81
2018-03-17T20:09:52.297Z,158381.11
2018-03-17T20:12:19.958Z,158368.16
2018-03-17T20:14:47.609Z,158373.31
2018-03-17T20:17:15.290Z,158361.00
2018-03-17T20:19:42.998Z,158362.98
2018-03-17T20:22:10.761Z,158370.73
2018-03-17T20:24:38.434Z,158362.98
2018-03-17T20:27:06.044Z,158364.92
2018-03-17T20:29:33.779Z,158363.63
2018-03-17T20:32:01.475Z,158351.97
2018-03-17T20:34:29.217Z,158349.33
2018-03-17T20:36:56.903Z,158348.69
2018-03-17T20:39:24.576Z,158344.81
2018-03-17T20:41:52.313Z,158345.45
2018-03-17T20:44:20.030Z,158329.28
2018-03-17T20:46:47.696Z,158333.78
2018-03-17T20:49:15.500Z,158319.53
2018-03-17T20:51:43.384Z,158330.56
2018-03-17T20:54:10.951Z,158311.75
2018-03-17T20:56:38.610Z,158305.94
2018-03-17T20:59:06.298Z,158300.72
2018-03-17T21:01:34.011Z,158305.30
2018-03-17T21:04:01.575Z,158313.03
2018-03-17T21:06:29.235Z,158301.42
2018-03-17T21:08:56.892Z,158297.50
2018-03-17T21:11:24.567Z,158294.92
2018-03-17T21:13:52.199Z,158283.91
2018-03-17T21:16:19.803Z,158283.25
2018-03-17T21:18:47.456Z,158289.11
2018-03-17T21:21:15.252Z,158273.53
2018-03-17T21:23:42.839Z,158265.13
2018-03-17T21:26:10.633Z,158276.09
2018-03-17T21:28:38.300Z,158263.78
2018-03-17T21:31:05.860Z,158252.77
2018-03-17T21:33:33.511Z,158264.44
2018-03-17T21:36:01.107Z,158250.83
2018-03-17T21:38:28.750Z,158257.34
2018-03-17T21:40:56.390Z,158246.31
2018-03-17T21:43:23.943Z,158246.97
2018-03-17T21:45:51.566Z,158257.34
2018-03-17T21:48:19.136Z,158241.16
2018-03-17T21:50:46.766Z,158240.47
2018-03-17T21:53:14.340Z,158244.38
2018-03-17T21:55:41.896Z,158243.73
2018-03-17T21:58:09.583Z,158232.72
2018-03-17T22:00:37.201Z,158241.16
2018-03-17T22:03:04.844Z,158242.45
2018-03-17T22:05:32.467Z,158241.16
2018-03-17T22:08:00.035Z,158230.78
2018-03-17T22:10:27.602Z,158219.77
2018-03-17T22:12:55.235Z,158230.13
2018-03-17T22:15:22.825Z,158231.42
2018-03-17T22:17:50.400Z,158221.05
2018-03-17T22:20:18.106Z,158211.97
2018-03-17T22:22:45.711Z,158228.16
2018-03-17T22:25:13.362Z,158224.28
2018-03-17T22:27:41.180Z,158219.77
2018-03-17T22:30:08.752Z,158213.91
2018-03-17T22:32:36.425Z,158215.84
2018-03-17T22:35:04.200Z,158208.09
2018-03-17T22:37:31.784Z,158201.59
2018-03-17T22:39:59.442Z,158195.16
2018-03-17T22:42:27.079Z,158189.94
2018-03-17T22:44:54.676Z,158195.80
2018-03-17T22:47:22.294Z,158194.50
2018-03-17T22:49:49.882Z,158196.44
2018-03-17T22:52:17.656Z,158185.42
2018-03-17T22:54:45.276Z,158175.69
2018-03-17T22:57:12.850Z,158159.52
2018-03-17T22:59:40.658Z,158178.92
2018-03-17T23:02:08.254Z,158181.55
2018-03-17T23:04:35.835Z,158175.69
2018-03-17T23:07:03.517Z,158172.47
2018-03-17T23:09:31.111Z,158206.81
2018-03-17T23:11:58.722Z,158182.19
2018-03-17T23:14:26.328Z,158171.17
2018-03-17T23:16:53.923Z,158173.75
2018-03-17T23:19:21.525Z,158178.28
2018-03-17T23:21:49.209Z,158188.00
2018-03-17T23:24:16.811Z,158172.47
2018-03-17T23:26:44.412Z,158161.45
2018-03-17T23:29:12.095Z,158156.23
2018-03-17T23:31:39.679Z,158155.59
2018-03-17T23:34:07.250Z,158153.02
2018-03-17T23:36:34.926Z,158146.56
2018-03-17T23:39:02.514Z,158142.00
2018-03-17T23:41:30.183Z,158141.34
2018-03-17T23:43:57.831Z,158138.13
2018-03-17T23:46:25.458Z,158123.23
2018-03-17T23:48:53.138Z,158132.31
2018-03-17T23:51:20.731Z,158133.61
2018-03-17T23:53:48.350Z,158131.63
2018-03-17T23:56:16.006Z,158127.11
2018-03-17T23:58:43.672Z,158109.00
